createdAt,value
2022-10-21T00:00:25.193Z,99939.50
2022-10-21T00:01:26.736Z,99927.59
2022-10-21T00:02:28.207Z,99930.28
2022-10-21T00:03:29.721Z,99924.63
2022-10-21T00:04:31.846Z,99936.75
2022-10-21T00:05:33.288Z,99935.91
2022-10-21T00:06:34.939Z,99934.91
2022-10-21T00:07:36.383Z,99945.34
2022-10-21T00:08:38.138Z,99947.13
2022-10-21T00:09:39.679Z,99943.94
2022-10-21T00:10:41.133Z,99956.22
2022-10-21T00:11:42.615Z,99953.09
2022-10-21T00:12:44.081Z,99957.06
2022-10-21T00:13:45.615Z,99965.00
2022-10-21T00:14:47.094Z,99970.97
2022-10-21T00:16:04.928Z,99977.44
2022-10-21T00:17:06.383Z,99975.38
2022-10-21T00:18:07.869Z,99963.59
2022-10-21T00:19:09.705Z,99963.59
2022-10-21T00:20:12.017Z,99954.75
2022-10-21T00:21:14.745Z,99960.63
2022-10-21T00:22:16.235Z,99955.94
2022-10-21T00:23:17.710Z,99957.84
2022-10-21T00:24:19.156Z,99949.09
2022-10-21T00:25:20.715Z,99953.06
2022-10-21T00:26:22.192Z,99953.47
2022-10-21T00:27:23.708Z,99959.09
2022-10-21T00:28:25.290Z,99933.25
2022-10-21T00:29:26.719Z,99954.94
2022-10-21T00:30:28.245Z,99961.00
2022-10-21T00:31:30.595Z,99961.22
2022-10-21T00:32:32.095Z,99953.09
2022-10-21T00:33:33.571Z,99958.47
2022-10-21T00:34:35.204Z,99945.53
2022-10-21T00:35:36.692Z,99945.97
2022-10-21T00:36:38.155Z,99943.03
2022-10-21T00:37:39.959Z,99948.03
2022-10-21T00:38:42.359Z,99939.91
2022-10-21T00:39:43.818Z,99933.75
2022-10-21T00:40:45.283Z,99925.22
2022-10-21T00:41:46.772Z,99925.31
2022-10-21T00:42:48.467Z,99926.66
2022-10-21T00:44:09.166Z,99929.88
2022-10-21T00:45:13.482Z,99925.72
2022-10-21T00:46:18.394Z,99926.53
2022-10-21T00:47:20.208Z,99926.03
2022-10-21T00:48:24.263Z,99929.88
2022-10-21T00:49:31.864Z,99922.56
2022-10-21T00:51:05.560Z,99917.97
2022-10-21T00:52:08.170Z,99924.63
2022-10-21T00:53:10.738Z,99922.84
2022-10-21T00:54:12.197Z,99920.03
2022-10-21T00:55:13.719Z,99909.25
2022-10-21T00:56:16.899Z,99911.44
2022-10-21T00:57:18.402Z,99900.16
2022-10-21T00:58:20.942Z,99892.75
2022-10-21T00:59:25.710Z,99879.16
2022-10-21T01:00:27.217Z,99870.56
2022-10-21T01:01:28.761Z,99866.59
2022-10-21T01:02:30.251Z,99857.53
2022-10-21T01:03:31.859Z,99847.91
2022-10-21T01:04:33.309Z,99839.44
2022-10-21T01:05:36.372Z,99838.78
2022-10-21T01:06:37.953Z,99841.44
2022-10-21T01:07:41.194Z,99845.09
2022-10-21T01:08:43.004Z,99841.78
2022-10-21T01:09:44.502Z,99854.41
2022-10-21T01:10:45.987Z,99864.72
2022-10-21T01:11:47.633Z,99870.56
2022-10-21T01:12:53.094Z,99878.84
2022-10-21T01:14:01.083Z,99879.00
2022-10-21T01:15:14.331Z,99884.31
2022-10-21T01:16:18.359Z,99888.13
2022-10-21T01:17:43.705Z,99886.13
2022-10-21T01:18:46.166Z,99877.16
2022-10-21T01:19:50.563Z,99870.81
2022-10-21T01:20:58.028Z,99882.09
2022-10-21T01:22:04.213Z,99877.75
2022-10-21T01:23:31.886Z,99886.97
2022-10-21T01:24:51.840Z,99877.00
2022-10-21T01:25:53.321Z,99884.81
2022-10-21T01:26:59.890Z,99891.09
2022-10-21T01:28:05.814Z,99893.91
2022-10-21T01:29:16.048Z,99898.50
2022-10-21T01:30:38.053Z,99895.50
2022-10-21T01:31:43.007Z,99892.50
2022-10-21T01:33:03.366Z,99872.19
2022-10-21T01:34:07.874Z,99870.84
2022-10-21T01:35:32.587Z,99860.59
2022-10-21T01:36:41.659Z,99860.84
2022-10-21T01:37:45.122Z,99862.38
2022-10-21T01:39:03.386Z,99871.28
2022-10-21T01:40:09.062Z,99867.47
2022-10-21T01:41:13.187Z,99868.22
2022-10-21T01:42:20.503Z,99864.56
2022-10-21T01:43:24.530Z,99862.09
2022-10-21T01:44:27.838Z,99864.09
2022-10-21T01:45:29.278Z,99857.00
2022-10-21T01:46:31.678Z,99854.88
2022-10-21T01:47:33.916Z,99856.53
2022-10-21T01:48:36.378Z,99857.69
2022-10-21T01:49:42.291Z,99855.53
2022-10-21T01:50:59.574Z,99851.38
2022-10-21T01:52:03.608Z,99859.75
2022-10-21T01:53:06.487Z,99861.41
2022-10-21T01:54:09.585Z,99861.41
2022-10-21T01:55:12.602Z,99857.63
2022-10-21T01:56:14.128Z,99860.44
2022-10-21T01:57:16.013Z,99853.78
2022-10-21T01:58:21.820Z,99850.97
2022-10-21T01:59:23.271Z,99852.28
2022-10-21T02:01:32.639Z,99850.34
2022-10-21T02:02:36.188Z,99858.16
2022-10-21T02:03:38.762Z,99855.97
2022-10-21T02:04:41.083Z,99844.50
2022-10-21T02:05:42.525Z,99851.63
2022-10-21T02:06:44.007Z,99848.41
2022-10-21T02:07:45.607Z,99848.88
2022-10-21T02:08:47.199Z,99848.72
2022-10-21T02:09:48.750Z,99843.28
2022-10-21T02:10:51.597Z,99847.66
2022-10-21T02:11:53.990Z,99847.16
2022-10-21T02:12:56.334Z,99837.22
2022-10-21T02:13:59.103Z,99836.75
2022-10-21T02:15:00.609Z,99838.44
2022-10-21T02:16:02.659Z,99838.44
2022-10-21T02:17:04.168Z,99830.56
2022-10-21T02:18:07.325Z,99816.78
2022-10-21T02:19:13.727Z,99810.53
2022-10-21T02:20:15.184Z,99812.19
2022-10-21T02:21:18.969Z,99804.56
2022-10-21T02:22:20.724Z,99811.03
2022-10-21T02:23:23.619Z,99812.13
2022-10-21T02:24:36.710Z,99799.72
2022-10-21T02:25:38.636Z,99794.28
2022-10-21T02:26:40.087Z,99795.09
2022-10-21T02:27:41.567Z,99788.56
2022-10-21T02:28:43.184Z,99800.97
2022-10-21T02:29:44.671Z,99803.47
2022-10-21T02:30:50.091Z,99802.94
2022-10-21T02:32:20.757Z,99793.97
2022-10-21T02:33:42.502Z,99801.56
2022-10-21T02:35:20.450Z,99807.53
2022-10-21T02:36:29.041Z,99807.34
2022-10-21T02:37:49.297Z,99797.97
2022-10-21T02:38:52.375Z,99802.69
2022-10-21T02:39:57.271Z,99808.31
2022-10-21T02:41:01.890Z,99801.53
2022-10-21T02:42:04.355Z,99806.50
2022-10-21T02:43:07.150Z,99804.00
2022-10-21T02:44:08.638Z,99794.09
2022-10-21T02:45:10.578Z,99797.09
2022-10-21T02:46:12.356Z,99790.94
2022-10-21T02:47:15.305Z,99796.91
2022-10-21T02:48:16.843Z,99786.16
2022-10-21T02:49:18.315Z,99797.63
2022-10-21T02:50:19.944Z,99795.34
2022-10-21T02:51:21.378Z,99790.31
2022-10-21T02:52:22.891Z,99782.38
2022-10-21T02:53:24.336Z,99782.19
2022-10-21T02:54:25.810Z,99785.00
2022-10-21T02:55:27.286Z,99786.34
2022-10-21T02:57:31.226Z,99787.53
2022-10-21T02:58:32.664Z,99780.56
2022-10-21T02:59:34.135Z,99768.66
2022-10-21T03:00:35.631Z,99780.16
2022-10-21T03:01:37.082Z,99769.91
2022-10-21T03:02:38.651Z,99763.09
2022-10-21T03:03:40.142Z,99762.59
2022-10-21T03:04:41.638Z,99753.50
2022-10-21T03:05:43.179Z,99755.16
2022-10-21T03:06:44.658Z,99758.47
2022-10-21T03:07:46.184Z,99757.38
2022-10-21T03:08:47.720Z,99765.50
2022-10-21T03:09:49.287Z,99760.38
2022-10-21T03:10:53.134Z,99767.38
2022-10-21T03:11:55.193Z,99761.06
2022-10-21T03:12:56.655Z,99762.75
2022-10-21T03:13:58.129Z,99771.94
2022-10-21T03:14:59.611Z,99760.69
2022-10-21T03:16:01.147Z,99767.38
2022-10-21T03:17:02.683Z,99772.34
2022-10-21T03:18:04.150Z,99770.03
2022-10-21T03:19:05.690Z,99765.06
2022-10-21T03:20:07.435Z,99766.06
2022-10-21T03:21:08.917Z,99769.34
2022-10-21T03:22:10.449Z,99772.81
2022-10-21T03:23:11.907Z,99766.94
2022-10-21T03:24:24.973Z,99776.47
2022-10-21T03:25:34.284Z,99770.91
2022-10-21T03:26:36.865Z,99762.78
2022-10-21T03:27:38.350Z,99763.28
2022-10-21T03:28:39.878Z,99771.75
2022-10-21T03:29:41.328Z,99763.63
2022-10-21T03:30:42.851Z,99770.88
2022-10-21T03:31:44.371Z,99769.38
2022-10-21T03:32:45.828Z,99766.91
2022-10-21T03:33:47.397Z,99757.63
2022-10-21T03:34:48.856Z,99757.63
2022-10-21T03:35:50.373Z,99764.25
2022-10-21T03:36:51.885Z,99762.59
2022-10-21T03:37:53.471Z,99761.31
2022-10-21T03:38:54.991Z,99760.69
2022-10-21T03:39:56.522Z,99760.56
2022-10-21T03:40:58.039Z,99765.88
2022-10-21T03:41:59.498Z,99753.13
2022-10-21T03:43:01.031Z,99751.28
2022-10-21T03:44:02.501Z,99752.34
2022-10-21T03:45:04.100Z,99750.56
2022-10-21T03:46:05.608Z,99751.16
2022-10-21T03:47:07.164Z,99764.25
2022-10-21T03:48:08.708Z,99763.09
2022-10-21T03:49:17.081Z,99756.78
2022-10-21T03:50:26.091Z,99755.31
2022-10-21T03:51:28.189Z,99761.94
2022-10-21T03:52:29.765Z,99764.66
2022-10-21T03:53:42.933Z,99760.06
2022-10-21T03:54:44.987Z,99763.00
2022-10-21T03:55:46.516Z,99758.72
2022-10-21T03:56:48.045Z,99760.69
2022-10-21T03:57:49.647Z,99755.25
2022-10-21T03:58:54.014Z,99748.31
2022-10-21T03:59:59.251Z,99747.50
2022-10-21T04:01:00.835Z,99748.88
2022-10-21T04:02:02.410Z,99747.88
2022-10-21T04:03:04.002Z,99749.53
2022-10-21T04:04:05.455Z,99749.38
2022-10-21T04:05:07.294Z,99745.41
2022-10-21T04:06:08.780Z,99741.59
2022-10-21T04:07:10.282Z,99745.75
2022-10-21T04:08:11.818Z,99738.47
2022-10-21T04:09:13.321Z,99735.31
2022-10-21T04:10:14.844Z,99741.09
2022-10-21T04:11:16.369Z,99731.81
2022-10-21T04:12:17.832Z,99730.97
2022-10-21T04:13:19.354Z,99733.28
2022-10-21T04:14:20.913Z,99726.00
2022-10-21T04:15:22.372Z,99739.44
2022-10-21T04:16:23.888Z,99728.66
2022-10-21T04:17:25.452Z,99730.97
2022-10-21T04:18:26.958Z,99724.69
2022-10-21T04:19:28.472Z,99732.13
2022-10-21T04:20:29.964Z,99728.31
2022-10-21T04:21:31.462Z,99729.16
2022-10-21T04:22:32.998Z,99736.22
2022-10-21T04:23:34.729Z,99725.28
2022-10-21T04:24:36.222Z,99736.38
2022-10-21T04:25:37.714Z,99727.41
2022-10-21T04:26:39.283Z,99725.63
2022-10-21T04:27:40.762Z,99725.63
2022-10-21T04:28:42.246Z,99725.78
2022-10-21T04:29:43.742Z,99726.00
2022-10-21T04:30:45.259Z,99710.69
2022-10-21T04:31:46.766Z,99718.38
2022-10-21T04:32:50.702Z,99717.41
2022-10-21T04:33:52.366Z,99726.84
2022-10-21T04:34:54.148Z,99730.72
2022-10-21T04:35:55.725Z,99725.25
2022-10-21T04:37:01.013Z,99727.75
2022-10-21T04:38:05.638Z,99726.25
2022-10-21T04:39:07.201Z,99721.16
2022-10-21T04:40:09.076Z,99720.63
2022-10-21T04:41:10.560Z,99715.66
2022-10-21T04:42:12.159Z,99720.44
2022-10-21T04:43:13.673Z,99724.88
2022-10-21T04:44:15.191Z,99719.06
2022-10-21T04:45:17.177Z,99722.91
2022-10-21T04:46:20.796Z,99718.38
2022-10-21T04:47:22.267Z,99701.28
2022-10-21T04:48:23.785Z,99707.44
2022-10-21T04:49:25.393Z,99710.25
2022-10-21T04:50:26.930Z,99701.81
2022-10-21T04:51:28.496Z,99704.09
2022-10-21T04:52:30.100Z,99697.81
2022-10-21T04:53:31.587Z,99705.63
2022-10-21T04:54:33.146Z,99698.34
2022-10-21T04:55:34.646Z,99708.44
2022-10-21T04:56:36.110Z,99703.31
2022-10-21T04:57:37.641Z,99704.47
2022-10-21T04:58:39.104Z,99711.75
2022-10-21T04:59:40.625Z,99710.09
2022-10-21T05:00:42.124Z,99712.41
2022-10-21T05:01:43.593Z,99714.91
2022-10-21T05:02:45.102Z,99717.91
2022-10-21T05:03:46.578Z,99716.94
2022-10-21T05:04:48.112Z,99716.75
2022-10-21T05:05:50.434Z,99720.09
2022-10-21T05:06:51.908Z,99712.16
2022-10-21T05:07:53.452Z,99710.28
2022-10-21T05:08:54.955Z,99714.06
2022-10-21T05:09:56.547Z,99707.63
2022-10-21T05:10:59.210Z,99711.41
2022-10-21T05:12:00.868Z,99706.78
2022-10-21T05:13:02.346Z,99708.44
2022-10-21T05:14:03.852Z,99698.50
2022-10-21T05:15:05.507Z,99702.16
2022-10-21T05:16:07.116Z,99700.00
2022-10-21T05:17:08.568Z,99700.13
2022-10-21T05:18:10.076Z,99694.50
2022-10-21T05:19:11.821Z,99694.13
2022-10-21T05:20:13.331Z,99693.78
2022-10-21T05:21:14.984Z,99707.22
2022-10-21T05:22:16.435Z,99700.59
2022-10-21T05:23:18.004Z,99703.09
2022-10-21T05:24:19.523Z,99706.53
2022-10-21T05:25:21.377Z,99698.34
2022-10-21T05:26:24.267Z,99694.50
2022-10-21T05:27:25.775Z,99690.88
2022-10-21T05:28:27.239Z,99701.28
2022-10-21T05:29:28.717Z,99693.34
2022-10-21T05:30:30.404Z,99693.59
2022-10-21T05:31:31.876Z,99700.25
2022-10-21T05:32:33.322Z,99697.31
2022-10-21T05:33:34.827Z,99686.25
2022-10-21T05:34:36.263Z,99694.53
2022-10-21T05:35:37.807Z,99690.81
2022-10-21T05:36:39.263Z,99692.47
2022-10-21T05:37:40.749Z,99694.31
2022-10-21T05:38:42.207Z,99695.34
2022-10-21T05:39:43.699Z,99702.81
2022-10-21T05:40:45.343Z,99707.78
2022-10-21T05:41:48.075Z,99703.81
2022-10-21T05:42:49.805Z,99713.44
2022-10-21T05:43:51.305Z,99709.66
2022-10-21T05:44:52.777Z,99702.88
2022-10-21T05:45:54.268Z,99697.22
2022-10-21T05:46:55.736Z,99699.72
2022-10-21T05:47:57.263Z,99696.25
2022-10-21T05:48:58.817Z,99700.22
2022-10-21T05:50:00.272Z,99697.91
2022-10-21T05:51:01.809Z,99696.91
2022-10-21T05:52:03.297Z,99703.91
2022-10-21T05:53:04.844Z,99695.13
2022-10-21T05:54:06.438Z,99694.81
2022-10-21T05:55:08.276Z,99693.66
2022-10-21T05:56:10.476Z,99700.28
2022-10-21T05:57:11.960Z,99699.78
2022-10-21T05:58:13.490Z,99691.31
2022-10-21T05:59:14.998Z,99701.78
2022-10-21T06:00:16.498Z,99690.50
2022-10-21T06:01:18.292Z,99691.31
2022-10-21T06:02:19.819Z,99684.03
2022-10-21T06:03:22.460Z,99695.31
2022-10-21T06:04:24.004Z,99687.50
2022-10-21T06:05:25.512Z,99686.34
2022-10-21T06:06:26.964Z,99692.47
2022-10-21T06:07:28.416Z,99682.03
2022-10-21T06:08:30.443Z,99686.19
2022-10-21T06:09:32.013Z,99685.88
2022-10-21T06:10:33.450Z,99682.41
2022-10-21T06:11:34.917Z,99686.56
2022-10-21T06:12:36.373Z,99689.38
2022-10-21T06:13:38.003Z,99681.41
2022-10-21T06:14:39.512Z,99688.72
2022-10-21T06:15:41.027Z,99683.91
2022-10-21T06:16:42.515Z,99696.03
2022-10-21T06:17:43.998Z,99689.72
2022-10-21T06:18:45.476Z,99686.91
2022-10-21T06:19:50.030Z,99685.75
2022-10-21T06:20:52.558Z,99694.72
2022-10-21T06:21:54.300Z,99688.25
2022-10-21T06:22:55.765Z,99682.28
2022-10-21T06:23:57.280Z,99685.09
2022-10-21T06:24:58.773Z,99687.59
2022-10-21T06:26:11.171Z,99687.09
2022-10-21T06:27:13.776Z,99681.78
2022-10-21T06:28:15.234Z,99682.09
2022-10-21T06:29:17.480Z,99681.78
2022-10-21T06:30:19.095Z,99680.09
2022-10-21T06:31:23.340Z,99685.75
2022-10-21T06:32:24.897Z,99689.72
2022-10-21T06:33:27.265Z,99697.00
2022-10-21T06:34:29.031Z,99701.53
2022-10-21T06:35:30.540Z,99704.84
2022-10-21T06:36:32.083Z,99711.31
2022-10-21T06:37:33.646Z,99698.88
2022-10-21T06:38:36.973Z,99715.78
2022-10-21T06:39:38.479Z,99715.78
2022-10-21T06:40:39.998Z,99704.47
2022-10-21T06:41:41.472Z,99728.72
2022-10-21T06:42:42.944Z,99720.59
2022-10-21T06:43:44.472Z,99714.97
2022-10-21T06:44:46.030Z,99716.25
2022-10-21T06:45:47.548Z,99722.72
2022-10-21T06:46:49.168Z,99711.97
2022-10-21T06:47:50.673Z,99727.72
2022-10-21T06:48:52.346Z,99724.59
2022-10-21T06:49:53.867Z,99726.91
2022-10-21T06:50:58.961Z,99725.22
2022-10-21T06:52:00.539Z,99733.66
2022-10-21T06:53:03.470Z,99734.81
2022-10-21T06:54:07.524Z,99747.75
2022-10-21T06:55:09.181Z,99728.53
2022-10-21T06:56:11.589Z,99743.44
2022-10-21T06:57:13.327Z,99742.78
2022-10-21T06:58:14.916Z,99743.44
2022-10-21T06:59:16.784Z,99749.59
2022-10-21T07:00:18.543Z,99733.16
2022-10-21T07:01:33.428Z,99740.47
2022-10-21T07:02:37.004Z,99746.44
2022-10-21T07:03:38.640Z,99753.41
2022-10-21T07:04:44.472Z,99761.03
2022-10-21T07:05:46.047Z,99753.41
2022-10-21T07:06:49.073Z,99742.13
2022-10-21T07:07:50.571Z,99737.34
2022-10-21T07:08:59.580Z,99742.47
2022-10-21T07:10:01.277Z,99746.94
2022-10-21T07:11:02.820Z,99744.94
2022-10-21T07:12:04.879Z,99742.13
2022-10-21T07:13:06.482Z,99742.13
2022-10-21T07:14:08.040Z,99743.13
2022-10-21T07:15:09.899Z,99741.13
2022-10-21T07:16:16.007Z,99744.28
2022-10-21T07:17:17.654Z,99745.09
2022-10-21T07:18:19.232Z,99743.13
2022-10-21T07:19:20.769Z,99746.75
2022-10-21T07:20:22.441Z,99742.28
2022-10-21T07:21:25.054Z,99735.16
2022-10-21T07:22:26.679Z,99732.44
2022-10-21T07:23:28.203Z,99745.38
2022-10-21T07:24:29.706Z,99743.41
2022-10-21T07:25:31.199Z,99757.16
2022-10-21T07:26:32.892Z,99762.94
2022-10-21T07:27:34.492Z,99740.41
2022-10-21T07:28:36.056Z,99742.06
2022-10-21T07:29:37.773Z,99745.53
2022-10-21T07:30:42.845Z,99741.72
2022-10-21T07:31:44.454Z,99745.03
2022-10-21T07:32:45.938Z,99742.22
2022-10-21T07:33:47.571Z,99739.06
2022-10-21T07:34:49.133Z,99745.22
2022-10-21T07:35:50.764Z,99750.84
2022-10-21T07:36:52.967Z,99741.38
2022-10-21T07:37:54.500Z,99748.34
2022-10-21T07:38:57.289Z,99741.06
2022-10-21T07:39:58.913Z,99744.38
2022-10-21T07:41:00.464Z,99741.22
2022-10-21T07:42:02.405Z,99738.75
2022-10-21T07:43:03.913Z,99743.22
2022-10-21T07:44:05.833Z,99740.72
2022-10-21T07:45:07.531Z,99740.41
2022-10-21T07:46:09.059Z,99734.09
2022-10-21T07:47:10.600Z,99747.88
2022-10-21T07:48:12.227Z,99739.41
2022-10-21T07:49:14.098Z,99747.03
2022-10-21T07:50:16.218Z,99740.25
2022-10-21T07:51:18.725Z,99737.97
2022-10-21T07:52:20.233Z,99744.09
2022-10-21T07:53:25.852Z,99740.94
2022-10-21T07:54:27.357Z,99742.63
2022-10-21T07:55:28.926Z,99743.13
2022-10-21T07:56:34.653Z,99739.47
2022-10-21T07:57:36.452Z,99738.31
2022-10-21T07:58:37.960Z,99740.28
2022-10-21T07:59:39.491Z,99743.94
2022-10-21T08:00:42.957Z,99738.81
2022-10-21T08:01:45.808Z,99729.84
2022-10-21T08:02:47.567Z,99724.72
2022-10-21T08:03:49.090Z,99729.19
2022-10-21T08:04:52.165Z,99737.66
2022-10-21T08:05:53.674Z,99738.47
2022-10-21T08:06:55.588Z,99741.00
2022-10-21T08:07:58.864Z,99733.38
2022-10-21T08:09:00.592Z,99740.34
2022-10-21T08:10:08.719Z,99745.97
2022-10-21T08:11:10.852Z,99734.69
2022-10-21T08:12:14.513Z,99742.00
2022-10-21T08:13:17.020Z,99732.38
2022-10-21T08:14:18.565Z,99740.00
2022-10-21T08:15:20.079Z,99742.84
2022-10-21T08:16:21.637Z,99745.66
2022-10-21T08:17:23.259Z,99738.53
2022-10-21T08:18:26.231Z,99748.97
2022-10-21T08:19:29.697Z,99752.28
2022-10-21T08:20:31.322Z,99758.75
2022-10-21T08:21:32.825Z,99755.59
2022-10-21T08:22:34.386Z,99757.59
2022-10-21T08:23:36.083Z,99766.03
2022-10-21T08:24:40.008Z,99749.59
2022-10-21T08:25:47.603Z,99745.75
2022-10-21T08:26:49.515Z,99762.19
2022-10-21T08:27:51.107Z,99756.22
2022-10-21T08:28:52.642Z,99753.06
2022-10-21T08:29:54.313Z,99753.06
2022-10-21T08:31:05.233Z,99747.75
2022-10-21T08:32:07.019Z,99737.31
2022-10-21T08:33:08.626Z,99723.72
2022-10-21T08:34:10.098Z,99712.94
2022-10-21T08:35:11.604Z,99720.09
2022-10-21T08:36:14.353Z,99748.81
2022-10-21T08:37:15.855Z,99741.50
2022-10-21T08:38:17.361Z,99741.31
2022-10-21T08:39:19.012Z,99740.47
2022-10-21T08:40:20.649Z,99738.19
2022-10-21T08:41:27.892Z,99743.00
2022-10-21T08:42:29.513Z,99743.28
2022-10-21T08:43:32.987Z,99763.03
2022-10-21T08:44:40.635Z,99752.41
2022-10-21T08:46:04.920Z,99759.69
2022-10-21T08:47:45.329Z,99764.34
2022-10-21T08:48:48.054Z,99761.19
2022-10-21T08:50:01.266Z,99770.66
2022-10-21T08:51:02.788Z,99764.69
2022-10-21T08:52:09.728Z,99774.31
2022-10-21T08:53:18.956Z,99779.31
2022-10-21T08:54:24.682Z,99777.66
2022-10-21T08:55:36.367Z,99778.47
2022-10-21T08:56:37.875Z,99763.72
2022-10-21T08:57:39.477Z,99763.72
2022-10-21T08:58:41.119Z,99769.38
2022-10-21T08:59:42.804Z,99770.69
2022-10-21T09:00:44.218Z,99758.59
2022-10-21T09:01:51.392Z,99757.75
2022-10-21T09:03:00.672Z,99766.72
2022-10-21T09:04:08.347Z,99766.06
2022-10-21T09:05:22.056Z,99758.75
2022-10-21T09:06:34.600Z,99762.91
2022-10-21T09:07:48.418Z,99768.25
2022-10-21T09:08:58.380Z,99769.09
2022-10-21T09:10:01.098Z,99770.25
2022-10-21T09:11:15.644Z,99776.06
2022-10-21T09:12:17.237Z,99768.25
2022-10-21T09:13:18.906Z,99762.75
2022-10-21T09:14:26.495Z,99774.03
2022-10-21T09:15:28.365Z,99779.16
2022-10-21T09:16:33.647Z,99781.16
2022-10-21T09:17:35.463Z,99778.66
2022-10-21T09:18:40.184Z,99782.13
2022-10-21T09:19:48.091Z,99785.13
2022-10-21T09:21:05.473Z,99789.59
2022-10-21T09:22:34.307Z,99791.13
2022-10-21T09:23:45.020Z,99793.31
2022-10-21T09:24:49.141Z,99799.94
2022-10-21T09:25:56.606Z,99793.97
2022-10-21T09:26:58.642Z,99797.47
2022-10-21T09:28:02.001Z,99798.28
2022-10-21T09:29:27.095Z,99797.63
2022-10-21T09:30:28.671Z,99802.09
2022-10-21T09:31:30.275Z,99799.50
2022-10-21T09:32:33.233Z,99794.34
2022-10-21T09:33:34.829Z,99792.03
2022-10-21T09:34:54.821Z,99791.38
2022-10-21T09:36:16.100Z,99792.41
2022-10-21T09:37:25.466Z,99794.09
2022-10-21T09:38:28.862Z,99791.56
2022-10-21T09:39:33.264Z,99795.22
2022-10-21T09:40:34.801Z,99790.41
2022-10-21T09:41:37.566Z,99793.22
2022-10-21T09:42:47.942Z,99787.22
2022-10-21T09:43:49.959Z,99794.09
2022-10-21T09:44:51.478Z,99790.94
2022-10-21T09:45:53.382Z,99793.06
2022-10-21T09:46:55.439Z,99789.06
2022-10-21T09:48:01.556Z,99792.72
2022-10-21T09:50:24.522Z,99787.88
2022-10-21T09:51:29.611Z,99792.69
2022-10-21T09:52:31.493Z,99789.00
2022-10-21T09:53:35.760Z,99798.47
2022-10-21T09:54:37.907Z,99792.97
2022-10-21T09:55:39.923Z,99797.97
2022-10-21T09:56:43.704Z,99801.47
2022-10-21T09:57:48.420Z,99794.34
2022-10-21T09:58:51.281Z,99788.34
2022-10-21T09:59:59.145Z,99793.06
2022-10-21T10:01:00.743Z,99808.78
2022-10-21T10:02:05.878Z,99800.63
2022-10-21T10:03:09.061Z,99799.63
2022-10-21T10:04:22.414Z,99795.63
2022-10-21T10:05:33.551Z,99805.91
2022-10-21T10:06:36.122Z,99797.47
2022-10-21T10:07:37.609Z,99797.97
2022-10-21T10:08:46.246Z,99797.50
2022-10-21T10:09:47.945Z,99795.50
2022-10-21T10:10:49.446Z,99798.00
2022-10-21T10:11:53.777Z,99812.09
2022-10-21T10:12:55.736Z,99808.28
2022-10-21T10:13:57.308Z,99807.66
2022-10-21T10:14:59.752Z,99798.56
2022-10-21T10:16:13.511Z,99810.38
2022-10-21T10:17:25.708Z,99807.66
2022-10-21T10:18:27.180Z,99811.13
2022-10-21T10:19:28.802Z,99811.13
2022-10-21T10:20:30.345Z,99813.94
2022-10-21T10:21:31.864Z,99817.59
2022-10-21T10:22:41.827Z,99816.47
2022-10-21T10:23:47.369Z,99811.94
2022-10-21T10:24:48.848Z,99820.41
2022-10-21T10:25:50.815Z,99817.75
2022-10-21T10:26:52.427Z,99819.75
2022-10-21T10:27:59.355Z,99824.72
2022-10-21T10:29:03.314Z,99820.13
2022-10-21T10:30:06.302Z,99818.31
2022-10-21T10:31:08.238Z,99829.63
2022-10-21T10:32:11.545Z,99822.94
2022-10-21T10:33:20.171Z,99827.94
2022-10-21T10:34:22.515Z,99822.31
2022-10-21T10:35:27.079Z,99821.66
2022-10-21T10:36:29.890Z,99818.16
2022-10-21T10:37:31.895Z,99809.53
2022-10-21T10:38:36.077Z,99807.25
2022-10-21T10:39:38.482Z,99811.19
2022-10-21T10:40:41.972Z,99807.91
2022-10-21T10:41:45.814Z,99805.25
2022-10-21T10:42:47.283Z,99803.75
2022-10-21T10:43:49.568Z,99809.09
2022-10-21T10:44:51.867Z,99798.66
2022-10-21T10:45:54.176Z,99812.94
2022-10-21T10:46:56.066Z,99809.59
2022-10-21T10:48:00.558Z,99803.63
2022-10-21T10:49:19.058Z,99798.47
2022-10-21T10:50:38.514Z,99798.97
2022-10-21T10:51:42.749Z,99798.00
2022-10-21T10:52:44.340Z,99808.13
2022-10-21T10:53:45.816Z,99806.47
2022-10-21T10:54:47.575Z,99801.81
2022-10-21T10:55:55.485Z,99799.00
2022-10-21T10:57:00.279Z,99798.00
2022-10-21T10:58:11.498Z,99794.34
2022-10-21T10:59:35.556Z,99795.34
2022-10-21T11:00:38.911Z,99792.03
2022-10-21T11:01:46.324Z,99793.50
2022-10-21T11:02:55.168Z,99781.91
2022-10-21T11:04:01.382Z,99787.38
2022-10-21T11:05:11.852Z,99778.56
2022-10-21T11:06:21.688Z,99777.06
2022-10-21T11:07:32.199Z,99771.44
2022-10-21T11:08:37.541Z,99770.09
2022-10-21T11:09:39.061Z,99774.09
2022-10-21T11:10:47.072Z,99764.47
2022-10-21T11:11:48.737Z,99758.81
2022-10-21T11:12:50.230Z,99774.44
2022-10-21T11:13:52.693Z,99772.44
2022-10-21T11:14:54.927Z,99793.22
2022-10-21T11:16:11.434Z,99781.56
2022-10-21T11:17:13.440Z,99780.06
2022-10-21T11:18:25.409Z,99777.75
2022-10-21T11:19:33.795Z,99793.38
2022-10-21T11:20:42.881Z,99819.81
2022-10-21T11:21:45.766Z,99813.50
2022-10-21T11:24:12.013Z,99793.03
2022-10-21T11:25:16.545Z,99801.53
2022-10-21T11:26:18.055Z,99796.38
2022-10-21T11:27:38.398Z,99802.00
2022-10-21T11:28:44.677Z,99796.22
2022-10-21T11:30:15.182Z,99802.69
2022-10-21T11:31:24.453Z,99797.22
2022-10-21T11:32:55.111Z,99807.00
2022-10-21T11:33:56.676Z,99803.22
2022-10-21T11:35:13.409Z,99814.69
2022-10-21T11:36:33.402Z,99807.03
2022-10-21T11:37:46.903Z,99817.03
2022-10-21T11:39:11.303Z,99813.19
2022-10-21T11:40:30.914Z,99812.38
2022-10-21T11:41:32.449Z,99815.38
2022-10-21T11:42:43.172Z,99817.34
2022-10-21T11:43:53.626Z,99816.69
2022-10-21T11:45:01.236Z,99807.72
2022-10-21T11:46:28.936Z,99809.38
2022-10-21T11:47:30.416Z,99811.69
2022-10-21T11:48:58.170Z,99805.06
2022-10-21T11:49:59.732Z,99801.22
2022-10-21T11:51:03.785Z,99794.88
2022-10-21T11:52:07.693Z,99789.41
2022-10-21T11:53:28.013Z,99794.56
2022-10-21T11:54:58.283Z,99786.91
2022-10-21T11:56:23.327Z,99790.38
2022-10-21T11:57:24.761Z,99787.38
2022-10-21T11:58:41.356Z,99782.56
2022-10-21T11:59:56.643Z,99790.03
2022-10-21T12:01:03.848Z,99782.22
2022-10-21T12:02:05.336Z,99784.16
2022-10-21T12:03:13.227Z,99781.81
2022-10-21T12:04:19.343Z,99785.31
2022-10-21T12:05:39.235Z,99788.50
2022-10-21T12:06:50.182Z,99788.16
2022-10-21T12:07:51.636Z,99801.75
2022-10-21T12:09:00.150Z,99792.63
2022-10-21T12:10:04.339Z,99799.59
2022-10-21T12:11:10.217Z,99804.25
2022-10-21T12:12:15.309Z,99807.41
2022-10-21T12:13:18.399Z,99795.41
2022-10-21T12:14:31.651Z,99798.84
2022-10-21T12:15:43.413Z,99792.19
2022-10-21T12:16:44.902Z,99791.75
2022-10-21T12:17:47.971Z,99783.88
2022-10-21T12:19:00.195Z,99799.19
2022-10-21T12:20:03.624Z,99801.38
2022-10-21T12:21:05.436Z,99790.53
2022-10-21T12:22:07.234Z,99787.72
2022-10-21T12:23:09.542Z,99786.66
2022-10-21T12:24:11.021Z,99780.66
2022-10-21T12:25:12.457Z,99784.66
2022-10-21T12:26:16.921Z,99778.72
2022-10-21T12:27:20.029Z,99782.91
2022-10-21T12:28:39.816Z,99780.91
2022-10-21T12:29:53.355Z,99782.22
2022-10-21T12:30:56.511Z,99779.38
2022-10-21T12:32:02.681Z,99777.56
2022-10-21T12:33:04.447Z,99782.53
2022-10-21T12:34:05.938Z,99791.84
2022-10-21T12:35:16.749Z,99780.88
2022-10-21T12:36:24.385Z,99785.50
2022-10-21T12:37:38.388Z,99793.16
2022-10-21T12:38:53.031Z,99789.16
2022-10-21T12:40:08.354Z,99783.97